Time;durP1;ratioP1;P1;durP2;ratioP2;P2;SDS_P1;SDS_P2;PMS_P1;PMS_P2;Temp;Humidity;BMP_temperature;BMP_pressure;BME280_temperature;BME280_humidity;BME280_pressure;Samples;Min_cycle;Max_cycle;Signal;HPM_P1;HPM_P2
2022/07/16 00:03:25;;;;;;;;;;;23.70;80.50;;;;;;5073534;28;20373;-63
2022/07/16 00:05:50;;;;;;;;;;;23.50;81.40;;;;;;5081419;28;20298;-63
2022/07/16 00:08:16;;;;;;;;;;;23.50;81.30;;;;;;5074977;28;20011;-64
2022/07/16 00:10:41;;;;;;;;;;;23.60;81.40;;;;;;5074665;28;19920;-66
2022/07/16 00:13:07;;;;;;;;;;;23.60;81.20;;;;;;5092942;28;19924;-67
2022/07/16 00:15:32;;;;;;;;;;;23.60;81.40;;;;;;5074701;28;20015;-64
2022/07/16 00:20:42;;;;;;;;;;;23.70;80.50;;;;;;5068261;28;19927;-64
2022/07/16 00:23:08;;;;;;;;;;;23.50;81.80;;;;;;5084752;28;19920;-64
2022/07/16 00:25:34;;;;;;;;;;;23.30;81.20;;;;;;5072302;28;20369;-63
2022/07/16 00:28:00;;;;;;;;;;;23.40;81.20;;;;;;5038569;28;19930;-65
2022/07/16 00:30:25;;;;;;;;;;;23.50;81.30;;;;;;5056919;28;19928;-65
2022/07/16 00:32:51;;;;;;;;;;;23.50;81.10;;;;;;5058755;28;20296;-63
2022/07/16 00:35:16;;;;;;;;;;;23.40;81.30;;;;;;5075412;28;20018;-65
2022/07/16 00:37:42;;;;;;;;;;;23.40;81.20;;;;;;5095108;28;19920;-65
2022/07/16 00:40:08;;;;;;;;;;;23.30;81.30;;;;;;5078439;28;19927;-64
2022/07/16 00:42:33;;;;;;;;;;;23.30;80.70;;;;;;5078410;28;20028;-65
2022/07/16 00:44:59;;;;;;;;;;;23.60;81.40;;;;;;5095312;28;20368;-64
2022/07/16 00:47:25;;;;;;;;;;;23.40;81.00;;;;;;5096338;28;19924;-64
2022/07/16 00:49:50;;;;;;;;;;;23.50;81.30;;;;;;5077868;28;19924;-63
2022/07/16 00:52:16;;;;;;;;;;;23.70;81.50;;;;;;5095948;28;20339;-65
2022/07/16 00:54:42;;;;;;;;;;;23.60;81.50;;;;;;5078911;28;19927;-68
2022/07/16 00:57:07;;;;;;;;;;;23.70;81.60;;;;;;5097122;28;20015;-69
2022/07/16 00:59:33;;;;;;;;;;;23.30;81.40;;;;;;5096811;28;19924;-64
2022/07/16 01:01:58;;;;;;;;;;;23.40;81.40;;;;;;5078080;28;19930;-64
2022/07/16 01:04:24;;;;;;;;;;;23.40;81.60;;;;;;5095970;28;20003;-64
2022/07/16 01:06:49;;;;;;;;;;;23.20;81.50;;;;;;5097043;28;19969;-64
2022/07/16 01:09:15;;;;;;;;;;;23.70;81.80;;;;;;5078488;28;19923;-63
2022/07/16 01:11:41;;;;;;;;;;;23.60;81.70;;;;;;5061767;28;19920;-68
2022/07/16 01:14:07;;;;;;;;;;;23.70;82.30;;;;;;5094882;28;19986;-63
2022/07/16 01:16:32;;;;;;;;;;;23.20;81.60;;;;;;5096924;28;19920;-63
2022/07/16 01:18:58;;;;;;;;;;;23.30;81.70;;;;;;5094624;28;19920;-63
2022/07/16 01:21:23;;;;;;;;;;;23.50;81.80;;;;;;5078189;28;19920;-63
2022/07/16 01:23:49;;;;;;;;;;;23.60;82.00;;;;;;5075224;28;20288;-63
2022/07/16 01:26:15;;;;;;;;;;;23.50;81.90;;;;;;5096382;28;19919;-63
2022/07/16 01:28:41;;;;;;;;;;;23.10;82.10;;;;;;5078128;28;20368;-63
2022/07/16 01:31:06;;;;;;;;;;;23.60;82.10;;;;;;5095514;28;20010;-67
2022/07/16 01:33:33;;;;;;;;;;;23.40;82.10;;;;;;5094838;28;19920;-63
2022/07/16 01:36:03;;;;;;;;;;;23.40;82.20;;;;;;5078478;28;19947;-63
2022/07/16 01:38:28;;;;;;;;;;;23.50;82.30;;;;;;5078453;28;19920;-63
2022/07/16 01:40:54;;;;;;;;;;;23.50;82.20;;;;;;5078105;28;20388;-63
2022/07/16 01:43:22;;;;;;;;;;;23.30;82.00;;;;;;5095195;28;19931;-63
2022/07/16 01:45:47;;;;;;;;;;;23.40;82.20;;;;;;5077015;28;19920;-63
2022/07/16 01:48:13;;;;;;;;;;;23.40;82.10;;;;;;5094851;28;19927;-63
2022/07/16 01:50:40;;;;;;;;;;;23.40;82.30;;;;;;5096611;28;19920;-63
2022/07/16 01:53:05;;;;;;;;;;;23.00;82.00;;;;;;5077728;28;19920;-63
2022/07/16 01:55:31;;;;;;;;;;;23.40;82.30;;;;;;5095232;28;20345;-62
2022/07/16 01:57:57;;;;;;;;;;;23.20;82.00;;;;;;5096131;28;19926;-63
2022/07/16 02:00:22;;;;;;;;;;;23.40;82.50;;;;;;5077749;28;20297;-63
2022/07/16 02:02:48;;;;;;;;;;;23.40;82.30;;;;;;5095672;28;19974;-63
2022/07/16 02:05:13;;;;;;;;;;;23.60;82.50;;;;;;5076000;28;19928;-63
2022/07/16 02:07:39;;;;;;;;;;;23.50;82.40;;;;;;5095934;28;20297;-62
2022/07/16 02:10:05;;;;;;;;;;;23.50;82.60;;;;;;5077428;28;19927;-63
2022/07/16 02:12:30;;;;;;;;;;;23.50;82.30;;;;;;5077498;28;19924;-64
2022/07/16 02:14:56;;;;;;;;;;;23.50;82.60;;;;;;5076993;28;20009;-63
2022/07/16 02:17:22;;;;;;;;;;;23.50;82.50;;;;;;5076526;28;19919;-63
2022/07/16 02:19:47;;;;;;;;;;;23.40;82.60;;;;;;5077649;28;20366;-63
2022/07/16 02:22:14;;;;;;;;;;;23.50;82.60;;;;;;5095430;28;19920;-62
2022/07/16 02:24:40;;;;;;;;;;;23.30;82.70;;;;;;5077024;28;19950;-63
2022/07/16 02:27:06;;;;;;;;;;;23.30;82.30;;;;;;5074429;28;19924;-63
2022/07/16 02:29:31;;;;;;;;;;;23.40;82.70;;;;;;5056374;28;20405;-66
2022/07/16 02:31:57;;;;;;;;;;;23.30;82.50;;;;;;5095507;28;19920;-63
2022/07/16 02:34:23;;;;;;;;;;;23.20;82.60;;;;;;5095436;28;19920;-63
2022/07/16 02:36:48;;;;;;;;;;;23.50;82.80;;;;;;5093872;28;19964;-63
2022/07/16 02:39:14;;;;;;;;;;;23.00;82.50;;;;;;5094134;28;19927;-63
2022/07/16 02:41:39;;;;;;;;;;;23.20;82.60;;;;;;5076831;28;19924;-63
2022/07/16 02:44:05;;;;;;;;;;;23.20;82.60;;;;;;5094924;28;19920;-62
2022/07/16 02:46:30;;;;;;;;;;;23.40;82.70;;;;;;5092074;28;19928;-63
2022/07/16 02:48:56;;;;;;;;;;;23.10;82.70;;;;;;5070391;28;19926;-63
2022/07/16 02:51:21;;;;;;;;;;;23.20;82.60;;;;;;5093562;28;20293;-63
2022/07/16 02:53:47;;;;;;;;;;;23.30;82.80;;;;;;5095319;28;19920;-63
2022/07/16 02:56:13;;;;;;;;;;;23.30;82.60;;;;;;5094871;28;20353;-63
2022/07/16 02:58:38;;;;;;;;;;;23.20;82.70;;;;;;5075109;28;19970;-64
2022/07/16 03:01:04;;;;;;;;;;;23.30;82.60;;;;;;5092672;28;19924;-63
2022/07/16 03:03:30;;;;;;;;;;;23.00;82.70;;;;;;5094872;28;19924;-63
2022/07/16 03:05:56;;;;;;;;;;;23.30;82.90;;;;;;5093369;28;19920;-63
2022/07/16 03:08:21;;;;;;;;;;;22.80;82.60;;;;;;5075713;28;20019;-63
2022/07/16 03:10:47;;;;;;;;;;;22.90;82.50;;;;;;5094668;28;19990;-63
2022/07/16 03:13:12;;;;;;;;;;;23.00;83.20;;;;;;5094232;28;19973;-63
2022/07/16 03:15:38;;;;;;;;;;;23.00;82.70;;;;;;5076261;28;19920;-63
2022/07/16 03:18:04;;;;;;;;;;;23.20;82.80;;;;;;5093627;28;20309;-64
2022/07/16 03:20:29;;;;;;;;;;;23.30;82.80;;;;;;5093507;28;19924;-63
2022/07/16 03:22:55;;;;;;;;;;;23.20;82.80;;;;;;5076211;28;19927;-63
2022/07/16 03:25:21;;;;;;;;;;;23.20;83.00;;;;;;5094441;28;20007;-63
2022/07/16 03:27:46;;;;;;;;;;;23.20;82.60;;;;;;5094160;28;19920;-63
2022/07/16 03:30:12;;;;;;;;;;;23.00;82.90;;;;;;5074850;28;20300;-63
2022/07/16 03:32:38;;;;;;;;;;;22.90;82.60;;;;;;5060555;28;19920;-63
2022/07/16 03:35:05;;;;;;;;;;;23.20;83.00;;;;;;5094396;28;19963;-63
2022/07/16 03:37:30;;;;;;;;;;;23.10;82.90;;;;;;5076269;28;20007;-62
2022/07/16 03:39:56;;;;;;;;;;;22.90;82.90;;;;;;5074414;28;20409;-66
2022/07/16 03:42:21;;;;;;;;;;;23.10;82.90;;;;;;5075751;28;19989;-63
2022/07/16 03:44:47;;;;;;;;;;;23.20;83.00;;;;;;5094569;28;19920;-63
2022/07/16 03:47:13;;;;;;;;;;;23.00;82.50;;;;;;5076044;28;19920;-64
2022/07/16 03:49:38;;;;;;;;;;;22.90;82.80;;;;;;5075880;28;20006;-63
2022/07/16 03:52:04;;;;;;;;;;;23.00;82.80;;;;;;5092570;28;20395;-63
2022/07/16 03:54:29;;;;;;;;;;;23.30;82.70;;;;;;5093465;28;20331;-63
2022/07/16 03:56:55;;;;;;;;;;;23.00;83.50;;;;;;5075793;28;19916;-63
2022/07/16 03:59:21;;;;;;;;;;;23.00;83.00;;;;;;5094035;28;19920;-63
2022/07/16 04:01:46;;;;;;;;;;;22.90;82.70;;;;;;5091661;28;19920;-63
2022/07/16 04:04:12;;;;;;;;;;;23.30;83.00;;;;;;5093897;28;19927;-63
2022/07/16 04:06:37;;;;;;;;;;;22.70;82.70;;;;;;5075769;28;19920;-63
2022/07/16 04:09:03;;;;;;;;;;;22.90;82.70;;;;;;5075652;28;19916;-63
2022/07/16 04:11:29;;;;;;;;;;;23.00;82.80;;;;;;5075049;28;20301;-63
2022/07/16 04:13:54;;;;;;;;;;;23.00;82.90;;;;;;5095960;28;19920;-63
2022/07/16 04:16:20;;;;;;;;;;;23.00;82.90;;;;;;5097415;28;19931;-63
2022/07/16 04:18:46;;;;;;;;;;;23.10;83.00;;;;;;5079610;28;19920;-63
2022/07/16 04:21:11;;;;;;;;;;;23.30;83.00;;;;;;5097829;28;19920;-64
2022/07/16 04:23:37;;;;;;;;;;;22.80;82.90;;;;;;5096160;28;19920;-63
2022/07/16 04:26:02;;;;;;;;;;;23.00;82.90;;;;;;5097789;28;19927;-64
2022/07/16 04:28:28;;;;;;;;;;;22.80;82.80;;;;;;5079328;28;20282;-63
2022/07/16 04:30:54;;;;;;;;;;;23.20;82.90;;;;;;5097465;28;19959;-63
2022/07/16 04:33:19;;;;;;;;;;;23.20;82.80;;;;;;5095370;28;19954;-63
2022/07/16 04:35:45;;;;;;;;;;;23.00;82.90;;;;;;5078904;28;19920;-63
2022/07/16 04:38:11;;;;;;;;;;;23.10;82.90;;;;;;5097525;28;19920;-62
2022/07/16 04:40:36;;;;;;;;;;;23.10;83.00;;;;;;5079224;28;19923;-63
2022/07/16 04:43:02;;;;;;;;;;;23.00;82.50;;;;;;5097547;28;19927;-63
2022/07/16 04:45:28;;;;;;;;;;;23.30;83.10;;;;;;5095895;28;20397;-63
2022/07/16 04:47:53;;;;;;;;;;;22.80;82.70;;;;;;5062406;28;19920;-63
2022/07/16 04:50:19;;;;;;;;;;;22.80;82.90;;;;;;5079058;28;19920;-63
2022/07/16 04:52:44;;;;;;;;;;;23.30;82.90;;;;;;5097671;28;19920;-63
2022/07/16 04:55:10;;;;;;;;;;;23.00;82.90;;;;;;5076982;28;19920;-63
2022/07/16 04:57:36;;;;;;;;;;;22.90;82.90;;;;;;5096993;28;20028;-63
2022/07/16 05:00:01;;;;;;;;;;;22.90;83.00;;;;;;5097147;28;19963;-63
2022/07/16 05:05:11;;;;;;;;;;;23.30;82.30;;;;;;5077394;28;19971;-63
2022/07/16 05:07:37;;;;;;;;;;;23.00;83.00;;;;;;5095915;28;20016;-63
2022/07/16 05:10:02;;;;;;;;;;;23.10;83.30;;;;;;5078576;28;19916;-63
2022/07/16 05:12:28;;;;;;;;;;;23.30;83.10;;;;;;5084477;28;19920;-63
2022/07/16 05:14:53;;;;;;;;;;;23.10;83.30;;;;;;5097008;28;19920;-63
2022/07/16 05:17:19;;;;;;;;;;;23.40;83.30;;;;;;5077562;28;19950;-63
2022/07/16 05:19:45;;;;;;;;;;;23.10;83.30;;;;;;5087423;28;19932;-75
2022/07/16 05:22:10;;;;;;;;;;;23.30;83.50;;;;;;5055349;28;19927;-68
2022/07/16 05:24:36;;;;;;;;;;;23.20;83.30;;;;;;5057260;28;19927;-66
2022/07/16 05:27:02;;;;;;;;;;;22.90;83.10;;;;;;5085442;28;19963;-72
2022/07/16 05:29:28;;;;;;;;;;;23.30;83.40;;;;;;5077703;28;19920;-70
2022/07/16 05:31:54;;;;;;;;;;;23.40;82.80;;;;;;5078005;28;19920;-65
2022/07/16 05:34:19;;;;;;;;;;;23.10;83.40;;;;;;5077650;28;20015;-64
2022/07/16 05:36:45;;;;;;;;;;;23.00;83.00;;;;;;5077639;28;19927;-64
2022/07/16 05:39:11;;;;;;;;;;;23.20;83.10;;;;;;5094753;28;19920;-66
2022/07/16 05:41:36;;;;;;;;;;;23.10;83.10;;;;;;5077415;28;19926;-66
2022/07/16 05:44:02;;;;;;;;;;;23.00;83.00;;;;;;5078043;28;19942;-69
2022/07/16 05:46:28;;;;;;;;;;;23.10;82.80;;;;;;5061561;28;20062;-65
2022/07/16 05:48:53;;;;;;;;;;;23.20;83.20;;;;;;5074670;28;19920;-65
2022/07/16 05:51:19;;;;;;;;;;;23.40;83.10;;;;;;5076737;28;19927;-65
2022/07/16 05:53:44;;;;;;;;;;;23.50;83.30;;;;;;5096212;28;19920;-65
2022/07/16 05:56:10;;;;;;;;;;;23.50;83.10;;;;;;5077317;28;19920;-62
2022/07/16 05:58:36;;;;;;;;;;;23.30;83.10;;;;;;5076362;28;19920;-63
2022/07/16 06:01:01;;;;;;;;;;;23.30;82.80;;;;;;5094672;28;19924;-63
2022/07/16 06:03:27;;;;;;;;;;;23.40;82.90;;;;;;5076423;28;19920;-62
2022/07/16 06:05:52;;;;;;;;;;;23.40;82.90;;;;;;5095151;28;19920;-63
2022/07/16 06:08:18;;;;;;;;;;;23.50;82.60;;;;;;5095627;28;19920;-61
2022/07/16 06:10:44;;;;;;;;;;;23.40;82.10;;;;;;5093962;28;19920;-62
2022/07/16 06:13:10;;;;;;;;;;;23.30;81.10;;;;;;5095485;28;19928;-61
2022/07/16 06:15:36;;;;;;;;;;;23.50;81.30;;;;;;5077262;28;19963;-62
2022/07/16 06:18:01;;;;;;;;;;;23.60;80.20;;;;;;5095703;28;19987;-62
2022/07/16 06:20:27;;;;;;;;;;;23.40;79.80;;;;;;5093661;28;19965;-62
2022/07/16 06:22:54;;;;;;;;;;;23.60;79.50;;;;;;5095382;28;20377;-62
2022/07/16 06:25:20;;;;;;;;;;;23.50;79.40;;;;;;5095168;28;19977;-62
2022/07/16 06:27:45;;;;;;;;;;;23.80;79.10;;;;;;5089811;28;19920;-64
2022/07/16 06:30:11;;;;;;;;;;;23.70;79.80;;;;;;5075887;28;19959;-74
2022/07/16 06:32:38;;;;;;;;;;;23.70;79.60;;;;;;5094899;28;20314;-74
2022/07/16 06:35:04;;;;;;;;;;;23.90;79.70;;;;;;5094235;28;19921;-73
2022/07/16 06:37:29;;;;;;;;;;;23.80;79.20;;;;;;5094867;28;19931;-74
2022/07/16 06:39:55;;;;;;;;;;;23.80;79.50;;;;;;5074778;28;19920;-67
2022/07/16 06:42:21;;;;;;;;;;;23.80;79.10;;;;;;5073729;28;19920;-65
2022/07/16 06:44:46;;;;;;;;;;;24.00;79.00;;;;;;5090187;28;20294;-73
2022/07/16 06:47:12;;;;;;;;;;;24.30;78.80;;;;;;5073507;28;20387;-64
2022/07/16 06:49:37;;;;;;;;;;;24.30;78.60;;;;;;5075498;28;19948;-62
2022/07/16 06:52:03;;;;;;;;;;;24.40;78.70;;;;;;5075707;28;19926;-63
2022/07/16 06:54:29;;;;;;;;;;;24.30;78.20;;;;;;5091382;28;19920;-64
2022/07/16 06:56:54;;;;;;;;;;;24.70;78.00;;;;;;5070443;28;19985;-64
2022/07/16 06:59:20;;;;;;;;;;;24.30;77.60;;;;;;5069449;28;19943;-64
2022/07/16 07:01:46;;;;;;;;;;;24.80;77.50;;;;;;5072703;28;20292;-62
2022/07/16 07:04:11;;;;;;;;;;;24.80;77.30;;;;;;5094239;28;19942;-63
2022/07/16 07:06:37;;;;;;;;;;;24.80;76.90;;;;;;5059627;28;20377;-65
2022/07/16 07:09:02;;;;;;;;;;;25.20;77.10;;;;;;5077813;28;19926;-66
2022/07/16 07:11:28;;;;;;;;;;;25.10;76.70;;;;;;5093714;28;19926;-63
2022/07/16 07:13:54;;;;;;;;;;;25.00;76.60;;;;;;5073431;28;20404;-64
2022/07/16 07:16:19;;;;;;;;;;;24.80;76.30;;;;;;5074227;28;19931;-63
2022/07/16 07:18:45;;;;;;;;;;;25.10;76.60;;;;;;5062393;28;19919;-64
2022/07/16 07:21:11;;;;;;;;;;;25.00;76.30;;;;;;5082486;28;19920;-64
2022/07/16 07:23:36;;;;;;;;;;;25.10;76.00;;;;;;5074771;28;19927;-66
2022/07/16 07:26:02;;;;;;;;;;;25.20;75.80;;;;;;5058111;28;20292;-63
2022/07/16 07:28:28;;;;;;;;;;;25.40;75.90;;;;;;5088898;28;20331;-69
2022/07/16 07:30:54;;;;;;;;;;;25.30;75.30;;;;;;5092152;28;20401;-64
2022/07/16 07:33:20;;;;;;;;;;;25.60;75.50;;;;;;5093639;28;19971;-63
2022/07/16 07:35:46;;;;;;;;;;;25.60;75.30;;;;;;5094083;28;20393;-63
2022/07/16 07:38:11;;;;;;;;;;;25.40;75.10;;;;;;5093668;28;19982;-64
2022/07/16 07:40:37;;;;;;;;;;;25.60;74.90;;;;;;5093355;28;19965;-63
2022/07/16 07:43:04;;;;;;;;;;;25.70;75.20;;;;;;5074812;28;19959;-70
2022/07/16 07:45:29;;;;;;;;;;;25.90;75.20;;;;;;5074936;28;19924;-63
2022/07/16 07:47:55;;;;;;;;;;;25.70;75.00;;;;;;5075506;28;20002;-64
2022/07/16 07:50:21;;;;;;;;;;;25.80;75.00;;;;;;5058576;28;19965;-63
2022/07/16 07:52:46;;;;;;;;;;;26.00;75.30;;;;;;5085566;28;19920;-68
2022/07/16 07:55:12;;;;;;;;;;;25.70;75.10;;;;;;5075187;28;19920;-63
2022/07/16 07:57:37;;;;;;;;;;;25.70;75.30;;;;;;5093763;28;19953;-64
2022/07/16 08:00:04;;;;;;;;;;;25.60;75.50;;;;;;5092128;28;20002;-64
2022/07/16 08:02:30;;;;;;;;;;;25.80;75.50;;;;;;5093198;28;20281;-63
2022/07/16 08:04:55;;;;;;;;;;;25.50;75.50;;;;;;5074601;28;19927;-63
2022/07/16 08:07:21;;;;;;;;;;;25.70;75.90;;;;;;5093732;28;19920;-64
2022/07/16 08:09:47;;;;;;;;;;;25.60;75.70;;;;;;5075348;28;19924;-67
2022/07/16 08:12:12;;;;;;;;;;;25.40;75.90;;;;;;5093487;28;19920;-66
2022/07/16 08:14:38;;;;;;;;;;;25.40;75.70;;;;;;5074906;28;19920;-65
2022/07/16 08:17:04;;;;;;;;;;;25.60;76.30;;;;;;5075225;28;19920;-63
2022/07/16 08:19:30;;;;;;;;;;;25.90;76.50;;;;;;5093453;28;19924;-63
2022/07/16 08:21:56;;;;;;;;;;;25.40;76.30;;;;;;5074772;28;19920;-63
2022/07/16 08:27:06;;;;;;;;;;;25.40;75.60;;;;;;5076186;28;19953;-63
2022/07/16 08:29:32;;;;;;;;;;;25.40;76.70;;;;;;5055033;28;19921;-63
2022/07/16 08:31:57;;;;;;;;;;;25.30;76.80;;;;;;5054875;28;19978;-66
2022/07/16 08:34:24;;;;;;;;;;;25.30;76.90;;;;;;5054866;28;20336;-64
2022/07/16 08:36:50;;;;;;;;;;;25.10;77.20;;;;;;5089393;28;19931;-63
2022/07/16 08:39:16;;;;;;;;;;;25.20;77.40;;;;;;5093181;28;19919;-63
2022/07/16 08:41:42;;;;;;;;;;;25.10;77.10;;;;;;5093034;28;19996;-63
2022/07/16 08:44:08;;;;;;;;;;;25.30;77.20;;;;;;5074701;28;20292;-63
2022/07/16 08:46:33;;;;;;;;;;;25.40;77.60;;;;;;5057822;28;19937;-64
2022/07/16 08:48:59;;;;;;;;;;;25.50;77.40;;;;;;5058002;28;19928;-63
2022/07/16 08:51:32;;;;;;;;;;;25.50;77.50;;;;;;5074747;28;19920;-63
2022/07/16 08:53:59;;;;;;;;;;;25.40;76.20;;;;;;5092773;28;20022;-63
2022/07/16 08:56:26;;;;;;;;;;;25.30;77.50;;;;;;5074825;28;19924;-63
2022/07/16 08:58:52;;;;;;;;;;;25.30;77.20;;;;;;5094088;28;19920;-63
2022/07/16 09:01:18;;;;;;;;;;;25.40;76.80;;;;;;5096483;28;19931;-63
2022/07/16 09:03:43;;;;;;;;;;;25.70;77.30;;;;;;5078339;28;19973;-63
2022/07/16 09:06:09;;;;;;;;;;;25.60;76.80;;;;;;5078192;28;19989;-64
2022/07/16 09:08:35;;;;;;;;;;;25.50;76.90;;;;;;5060977;28;19927;-63
2022/07/16 09:11:30;;;;;;;;;;;25.70;76.80;;;;;;5095998;28;19931;-63
2022/07/16 09:14:02;;;;;;;;;;;25.50;75.80;;;;;;4997963;28;19955;-63
2022/07/16 09:16:35;;;;;;;;;;;25.50;75.70;;;;;;5014064;28;19922;-63
2022/07/16 09:19:10;;;;;;;;;;;26.00;75.90;;;;;;5013787;28;19925;-63
2022/07/16 09:21:36;;;;;;;;;;;25.80;77.30;;;;;;5013826;28;19921;-63
2022/07/16 09:24:02;;;;;;;;;;;25.70;77.20;;;;;;5013813;28;19931;-63
2022/07/16 09:26:28;;;;;;;;;;;25.50;76.70;;;;;;5013385;28;19921;-63
2022/07/16 09:28:54;;;;;;;;;;;25.40;77.00;;;;;;5013720;28;19975;-64
2022/07/16 09:31:39;;;;;;;;;;;25.50;76.60;;;;;;5013767;28;19932;-63
2022/07/16 09:34:05;;;;;;;;;;;25.60;76.00;;;;;;5013568;28;20466;-63
2022/07/16 09:36:31;;;;;;;;;;;25.50;76.40;;;;;;4996853;28;19968;-63
2022/07/16 09:38:56;;;;;;;;;;;25.70;77.00;;;;;;4997442;28;19922;-63
2022/07/16 09:41:22;;;;;;;;;;;25.70;77.10;;;;;;4997148;28;19922;-63
2022/07/16 09:43:48;;;;;;;;;;;25.40;77.20;;;;;;4997125;28;20407;-63
2022/07/16 09:46:20;;;;;;;;;;;25.80;77.50;;;;;;4996528;28;20438;-63
2022/07/16 09:48:46;;;;;;;;;;;25.60;76.20;;;;;;5010268;28;19979;-63
2022/07/16 09:51:13;;;;;;;;;;;25.70;77.70;;;;;;5049280;28;20003;-64
2022/07/16 09:53:40;;;;;;;;;;;25.50;77.60;;;;;;5057677;28;19932;-63
2022/07/16 09:56:07;;;;;;;;;;;25.20;77.40;;;;;;5085198;28;20350;-63
2022/07/16 09:58:33;;;;;;;;;;;25.50;77.80;;;;;;5060703;28;19920;-63
2022/07/16 10:01:00;;;;;;;;;;;25.10;77.20;;;;;;5076338;28;19924;-63
2022/07/16 10:03:25;;;;;;;;;;;25.40;77.80;;;;;;5094945;28;20373;-63
2022/07/16 10:05:51;;;;;;;;;;;25.60;77.70;;;;;;5095218;28;19927;-63
2022/07/16 10:08:17;;;;;;;;;;;25.30;77.50;;;;;;5095062;28;19920;-63
2022/07/16 10:10:43;;;;;;;;;;;25.40;77.60;;;;;;5058872;28;19924;-63
2022/07/16 10:13:08;;;;;;;;;;;25.20;77.70;;;;;;5077098;28;19920;-65
2022/07/16 10:15:34;;;;;;;;;;;25.40;77.80;;;;;;5060490;28;20337;-63
2022/07/16 10:18:00;;;;;;;;;;;25.40;77.40;;;;;;5094899;28;19927;-63
2022/07/16 10:20:25;;;;;;;;;;;25.70;77.80;;;;;;5094972;28;19927;-63
2022/07/16 10:22:51;;;;;;;;;;;25.50;77.10;;;;;;5076946;28;20370;-63
2022/07/16 10:25:17;;;;;;;;;;;25.70;77.80;;;;;;5077573;28;20374;-63
2022/07/16 10:27:43;;;;;;;;;;;25.40;77.40;;;;;;5094060;28;19975;-63
2022/07/16 10:30:13;;;;;;;;;;;25.60;77.10;;;;;;5094268;28;19920;-65
2022/07/16 10:32:57;;;;;;;;;;;25.60;76.30;;;;;;5094926;28;19942;-63
2022/07/16 10:35:26;;;;;;;;;;;25.60;76.30;;;;;;5094951;28;19920;-63
2022/07/16 10:37:56;;;;;;;;;;;25.60;76.20;;;;;;5059047;28;19928;-63
2022/07/16 10:40:23;;;;;;;;;;;25.70;77.70;;;;;;5059361;28;19959;-64
2022/07/16 10:43:08;;;;;;;;;;;25.50;77.50;;;;;;5094270;28;19920;-63
2022/07/16 10:45:54;;;;;;;;;;;25.60;77.60;;;;;;5095029;28;20353;-64
2022/07/16 10:48:20;;;;;;;;;;;25.80;76.40;;;;;;5076471;28;19924;-63
2022/07/16 10:51:04;;;;;;;;;;;25.60;77.70;;;;;;5076252;28;19920;-63
2022/07/16 10:53:50;;;;;;;;;;;25.40;76.10;;;;;;5090437;28;19920;-63
2022/07/16 10:56:34;;;;;;;;;;;25.70;77.80;;;;;;5093836;28;20007;-63
2022/07/16 10:59:10;;;;;;;;;;;25.50;76.30;;;;;;5094150;28;19924;-63
2022/07/16 11:01:35;;;;;;;;;;;25.50;77.70;;;;;;5076254;28;19920;-63
2022/07/16 11:04:02;;;;;;;;;;;25.70;77.80;;;;;;5094174;28;20028;-63
2022/07/16 11:06:28;;;;;;;;;;;25.10;77.60;;;;;;5075982;28;19926;-63
2022/07/16 11:08:57;;;;;;;;;;;25.40;77.60;;;;;;5094229;28;19919;-63
2022/07/16 11:11:32;;;;;;;;;;;25.30;76.40;;;;;;5059155;28;19920;-63
2022/07/16 11:13:59;;;;;;;;;;;25.30;76.50;;;;;;5093707;28;19924;-63
2022/07/16 11:16:25;;;;;;;;;;;25.20;77.80;;;;;;5075832;28;20397;-63
2022/07/16 11:18:50;;;;;;;;;;;25.50;78.00;;;;;;5075726;28;19920;-63
2022/07/16 11:21:16;;;;;;;;;;;25.40;77.30;;;;;;5093594;28;19973;-63
2022/07/16 11:23:48;;;;;;;;;;;25.40;77.60;;;;;;5093680;28;19970;-63
2022/07/16 11:26:14;;;;;;;;;;;25.40;76.60;;;;;;5085650;28;19920;-62
2022/07/16 11:28:53;;;;;;;;;;;25.30;77.70;;;;;;5093425;28;20269;-65
2022/07/16 11:31:25;;;;;;;;;;;25.50;76.70;;;;;;5075863;28;19967;-64
2022/07/16 11:33:54;;;;;;;;;;;25.10;76.50;;;;;;5059431;28;19920;-63
2022/07/16 11:36:20;;;;;;;;;;;25.30;78.10;;;;;;5093473;28;19965;-63
2022/07/16 11:38:46;;;;;;;;;;;25.10;77.70;;;;;;5093481;28;20278;-64
2022/07/16 11:41:11;;;;;;;;;;;25.20;77.80;;;;;;5093796;28;19923;-65
2022/07/16 11:43:37;;;;;;;;;;;25.40;78.00;;;;;;5093563;28;20289;-62
2022/07/16 11:46:03;;;;;;;;;;;25.10;77.60;;;;;;5075143;28;20281;-63
2022/07/16 11:48:36;;;;;;;;;;;25.30;77.80;;;;;;5074474;28;19975;-65
2022/07/16 11:51:08;;;;;;;;;;;24.90;76.50;;;;;;5086596;28;19920;-63
2022/07/16 11:53:36;;;;;;;;;;;25.20;76.60;;;;;;5055498;28;19971;-63
2022/07/16 11:56:02;;;;;;;;;;;25.40;77.70;;;;;;5055689;28;20325;-65
2022/07/16 11:58:28;;;;;;;;;;;25.10;77.70;;;;;;5087796;28;19920;-64
2022/07/16 12:00:54;;;;;;;;;;;25.30;77.70;;;;;;5075126;28;19923;-63
2022/07/16 12:03:19;;;;;;;;;;;25.30;77.90;;;;;;5075198;28;20343;-62
2022/07/16 12:05:45;;;;;;;;;;;25.30;77.80;;;;;;5058776;28;19920;-63
2022/07/16 12:08:11;;;;;;;;;;;25.30;77.80;;;;;;5092772;28;19999;-65
2022/07/16 12:10:36;;;;;;;;;;;25.30;77.90;;;;;;5093285;28;19920;-63
2022/07/16 12:13:06;;;;;;;;;;;25.30;77.90;;;;;;5058796;28;20019;-64
2022/07/16 12:15:51;;;;;;;;;;;25.40;76.90;;;;;;5074978;28;19964;-64
2022/07/16 12:18:17;;;;;;;;;;;25.10;76.70;;;;;;5074194;28;20011;-62
2022/07/16 12:20:42;;;;;;;;;;;25.40;77.70;;;;;;5091780;28;20011;-66
2022/07/16 12:23:13;;;;;;;;;;;25.10;77.60;;;;;;5093499;28;19942;-63
2022/07/16 12:25:42;;;;;;;;;;;25.20;77.60;;;;;;5055220;28;19920;-67
2022/07/16 12:28:08;;;;;;;;;;;25.40;78.00;;;;;;5072684;28;20007;-63
2022/07/16 12:30:36;;;;;;;;;;;25.30;77.60;;;;;;5088736;28;20002;-63
2022/07/16 12:33:03;;;;;;;;;;;25.50;76.50;;;;;;5093949;28;20353;-63
2022/07/16 12:35:38;;;;;;;;;;;25.20;77.70;;;;;;5079353;28;20078;-63
2022/07/16 12:38:04;;;;;;;;;;;25.40;76.60;;;;;;5096873;28;19924;-63
2022/07/16 12:40:30;;;;;;;;;;;25.20;77.70;;;;;;5078581;28;19920;-63
2022/07/16 12:42:55;;;;;;;;;;;25.40;77.60;;;;;;5078476;28;20377;-62
2022/07/16 12:45:21;;;;;;;;;;;25.30;77.60;;;;;;5097344;28;20003;-63
2022/07/16 12:47:47;;;;;;;;;;;25.40;77.50;;;;;;5078768;28;20377;-63
2022/07/16 12:50:12;;;;;;;;;;;25.40;77.70;;;;;;5096024;28;19924;-66
2022/07/16 12:52:38;;;;;;;;;;;25.30;77.40;;;;;;5078874;28;19920;-66
2022/07/16 13:00:33;;;;;;;;;;;25.10;76.10;;;;;;5095933;28;19967;-63
2022/07/16 13:02:58;;;;;;;;;;;25.10;77.60;;;;;;5077733;28;19920;-64
2022/07/16 13:05:25;;;;;;;;;;;25.30;77.40;;;;;;5075787;28;19981;-64
2022/07/16 13:07:50;;;;;;;;;;;25.00;77.20;;;;;;5096050;28;20010;-63
2022/07/16 13:10:16;;;;;;;;;;;25.40;77.40;;;;;;5077493;28;20437;-63
2022/07/16 13:12:42;;;;;;;;;;;25.20;76.80;;;;;;5077942;28;20023;-63
2022/07/16 13:15:07;;;;;;;;;;;25.30;77.00;;;;;;5094482;28;20266;-65
2022/07/16 13:17:33;;;;;;;;;;;25.30;75.90;;;;;;5078187;28;19959;-63
2022/07/16 13:19:59;;;;;;;;;;;25.30;76.70;;;;;;5078122;28;19968;-65
2022/07/16 13:22:24;;;;;;;;;;;25.10;76.40;;;;;;5059264;28;20014;-67
2022/07/16 13:24:50;;;;;;;;;;;25.30;76.50;;;;;;5087240;28;19919;-63
2022/07/16 13:27:16;;;;;;;;;;;25.30;76.40;;;;;;5077342;28;19920;-62
2022/07/16 13:29:41;;;;;;;;;;;25.20;76.00;;;;;;5077672;28;19974;-64
2022/07/16 13:32:07;;;;;;;;;;;25.00;76.00;;;;;;5077721;28;19966;-63
2022/07/16 13:34:32;;;;;;;;;;;25.00;76.20;;;;;;5094024;28;19978;-66
2022/07/16 13:36:58;;;;;;;;;;;25.30;76.10;;;;;;5090765;28;19915;-63
2022/07/16 13:39:24;;;;;;;;;;;25.10;76.10;;;;;;5095562;28;19981;-64
2022/07/16 13:41:49;;;;;;;;;;;25.20;76.50;;;;;;5095692;28;20370;-65
2022/07/16 13:44:15;;;;;;;;;;;25.10;76.30;;;;;;5095009;28;19978;-65
2022/07/16 13:46:40;;;;;;;;;;;25.50;76.30;;;;;;5095514;28;19967;-66
2022/07/16 13:49:07;;;;;;;;;;;25.10;75.40;;;;;;5077459;28;20010;-64
2022/07/16 13:51:33;;;;;;;;;;;25.10;75.30;;;;;;5061184;28;20369;-64
2022/07/16 13:53:58;;;;;;;;;;;25.10;75.70;;;;;;5077608;28;19920;-65
2022/07/16 13:56:24;;;;;;;;;;;25.20;76.20;;;;;;5074202;28;19920;-65
2022/07/16 13:58:49;;;;;;;;;;;24.80;76.30;;;;;;5074196;28;19920;-64
2022/07/16 14:01:15;;;;;;;;;;;25.00;76.70;;;;;;5083035;28;19920;-65
2022/07/16 14:03:41;;;;;;;;;;;25.10;76.50;;;;;;5093605;28;19920;-64
2022/07/16 14:06:08;;;;;;;;;;;25.10;75.60;;;;;;5075511;28;19927;-69
2022/07/16 14:08:34;;;;;;;;;;;24.90;75.60;;;;;;5077441;28;19920;-73
2022/07/16 14:10:59;;;;;;;;;;;25.10;76.80;;;;;;5075907;28;19928;-63
2022/07/16 14:13:25;;;;;;;;;;;25.00;76.30;;;;;;5077194;28;19920;-73
2022/07/16 14:15:51;;;;;;;;;;;25.00;76.90;;;;;;5093307;28;19970;-63
2022/07/16 14:18:16;;;;;;;;;;;25.10;76.50;;;;;;5071730;28;20336;-65
2022/07/16 14:20:42;;;;;;;;;;;25.10;76.60;;;;;;5075799;28;19931;-67
2022/07/16 14:23:08;;;;;;;;;;;24.90;77.20;;;;;;5094407;28;19920;-66
2022/07/16 14:25:36;;;;;;;;;;;24.80;77.30;;;;;;5077377;28;19920;-64
2022/07/16 14:28:02;;;;;;;;;;;25.10;77.70;;;;;;5089796;28;19966;-69